Kingfisher — ZJL9063 — position and weather

sailwx.info

Track history (hours):
 
Tides and Currents Weather Stations Pressure Air Temp Water Temp Dewpoint Dewpoint Depression Visibility Wind Speed Wind Dir Waves Ship Positions

Kingfisher

Last reported at 2017-Dec-01 14:14 UTC. Time now 2017-Dec-17 10:17 UTC.
Position N 26°01' W 079°57'.
Warning: this ship's position is 15 days out of date.

Type: Ship. MMSI: 378112105.

Date/timePositionNaut miles runAvg speedWind from/ knotsBaromVisibWave heightAir tempDewpointWater temp
2017-Dec-01 14:14N 26°01' W 079°57'3 9.4
2017-Dec-01 13:58N 26°02' W 079°59'510.2
2017-Dec-01 13:28N 26°05' W 080°04'3 5.8
2017-Dec-01 12:59N 26°06' W 080°07'1 2.3
2017-Dec-01 12:26N 26°07' W 080°06'0 0.0
2017-Dec-01 11:56N 26°07' W 080°06'0 0.0
2017-Dec-01 11:29N 26°07' W 080°06'0 0.0
2017-Dec-01 10:53N 26°07' W 080°06'0 0.0
2017-Dec-01 10:29N 26°07' W 080°06'0 0.0
2017-Dec-01 09:59N 26°07' W 080°06'0 0.0
2017-Dec-01 08:47N 26°07' W 080°06'0 0.0
2017-Dec-01 08:26N 26°07' W 080°06'0 0.0
2017-Dec-01 07:29N 26°07' W 080°06'0 0.0
2017-Dec-01 06:59N 26°07' W 080°06'0 0.0
2017-Dec-01 06:29N 26°07' W 080°06'0 0.0
2017-Dec-01 05:59N 26°07' W 080°06'0 0.0
2017-Dec-01 05:17N 26°07' W 080°06'0 0.0
2017-Dec-01 01:11N 26°07' W 080°06'0 0.0
2017-Dec-01 00:53N 26°07' W 080°06'0 0.0
2017-Dec-01 00:26N 26°07' W 080°06'0 0.0
2017-Nov-30 23:11N 26°07' W 080°06'0 0.0
2017-Nov-30 22:41N 26°07' W 080°06'0 0.0
2017-Nov-30 22:26N 26°07' W 080°06'0 0.0
2017-Nov-30 21:59N 26°07' W 080°06'0 0.0
2017-Nov-30 21:23N 26°07' W 080°06'0 0.0
2017-Nov-30 20:59N 26°07' W 080°06'0 0.0
2017-Nov-30 20:14N 26°07' W 080°06'0 0.0
2017-Nov-30 19:59N 26°07' W 080°06'0 0.0
2017-Nov-30 19:29N 26°07' W 080°06'0 0.2
2017-Nov-30 18:58N 26°07' W 080°07'2 4.7
2017-Nov-30 18:30N 26°07' W 080°09'2 4.3
2017-Nov-30 17:57N 26°05' W 080°11'  
Track history (hours):
 
Tides and Currents Weather Stations Pressure Air Temp Water Temp Dewpoint Dewpoint Depression Visibility Wind Speed Wind Dir Waves Ship Positions

Kingfisher

Last reported at 2017-Dec-01 14:14 UTC. Time now 2017-Dec-17 10:17 UTC.
Position N 26°01' W 079°57'.
Warning: this ship's position is 15 days out of date.

Type: Ship. MMSI: 378112105.

Date/timePositionNaut miles runAvg speedWind from/ knotsBaromVisibWave heightAir tempDewpointWater temp
2017-Dec-01 14:14N 26°01' W 079°57'3 9.4
2017-Dec-01 13:58N 26°02' W 079°59'510.2
2017-Dec-01 13:28N 26°05' W 080°04'3 5.8
2017-Dec-01 12:59N 26°06' W 080°07'1 2.3
2017-Dec-01 12:26N 26°07' W 080°06'0 0.0
2017-Dec-01 11:56N 26°07' W 080°06'0 0.0
2017-Dec-01 11:29N 26°07' W 080°06'0 0.0
2017-Dec-01 10:53N 26°07' W 080°06'0 0.0
2017-Dec-01 10:29N 26°07' W 080°06'0 0.0
2017-Dec-01 09:59N 26°07' W 080°06'0 0.0
2017-Dec-01 08:47N 26°07' W 080°06'0 0.0
2017-Dec-01 08:26N 26°07' W 080°06'0 0.0
2017-Dec-01 07:29N 26°07' W 080°06'0 0.0
2017-Dec-01 06:59N 26°07' W 080°06'0 0.0
2017-Dec-01 06:29N 26°07' W 080°06'0 0.0
2017-Dec-01 05:59N 26°07' W 080°06'0 0.0
2017-Dec-01 05:17N 26°07' W 080°06'0 0.0
2017-Dec-01 01:11N 26°07' W 080°06'0 0.0
2017-Dec-01 00:53N 26°07' W 080°06'0 0.0
2017-Dec-01 00:26N 26°07' W 080°06'0 0.0
2017-Nov-30 23:11N 26°07' W 080°06'0 0.0
2017-Nov-30 22:41N 26°07' W 080°06'0 0.0
2017-Nov-30 22:26N 26°07' W 080°06'0 0.0
2017-Nov-30 21:59N 26°07' W 080°06'0 0.0
2017-Nov-30 21:23N 26°07' W 080°06'0 0.0
2017-Nov-30 20:59N 26°07' W 080°06'0 0.0
2017-Nov-30 20:14N 26°07' W 080°06'0 0.0
2017-Nov-30 19:59N 26°07' W 080°06'0 0.0
2017-Nov-30 19:29N 26°07' W 080°06'0 0.2
2017-Nov-30 18:58N 26°07' W 080°07'2 4.7
2017-Nov-30 18:30N 26°07' W 080°09'2 4.3
2017-Nov-30 17:57N 26°05' W 080°11'  

Dump ship's entire track history